createdAt,value
2018-05-13T00:01:19.949Z,22.60
2018-05-13T00:03:48.293Z,20.93
2018-05-13T00:06:17.404Z,19.37
2018-05-13T00:08:45.784Z,21.67
2018-05-13T00:11:14.270Z,20.17
2018-05-13T00:13:42.617Z,21.23
2018-05-13T00:16:11.740Z,19.83
2018-05-13T00:18:40.110Z,19.00
2018-05-13T00:21:08.425Z,19.73
2018-05-13T00:23:36.798Z,20.23
2018-05-13T00:26:05.894Z,21.60
2018-05-13T00:28:34.378Z,21.23
2018-05-13T00:31:02.718Z,21.87
2018-05-13T00:33:31.046Z,20.27
2018-05-13T00:35:59.886Z,21.07
2018-05-13T00:38:28.205Z,19.90
2018-05-13T00:40:56.530Z,21.13
2018-05-13T00:43:25.675Z,20.57
2018-05-13T00:45:54.016Z,21.37
2018-05-13T00:48:22.368Z,22.27
2018-05-13T00:50:51.513Z,21.03
2018-05-13T00:53:19.838Z,22.73
2018-05-13T00:55:48.954Z,19.83
2018-05-13T00:58:17.340Z,20.83
2018-05-13T01:00:45.781Z,19.77
2018-05-13T01:03:14.121Z,20.70
2018-05-13T01:05:42.474Z,20.47
2018-05-13T01:08:10.824Z,20.60
2018-05-13T01:10:39.967Z,21.77
2018-05-13T01:13:08.310Z,21.80
2018-05-13T01:15:37.452Z,20.73
2018-05-13T01:18:05.878Z,21.77
2018-05-13T01:20:34.710Z,21.27
2018-05-13T01:23:03.074Z,21.37
2018-05-13T01:25:31.431Z,22.03
2018-05-13T01:28:00.566Z,21.10
2018-05-13T01:30:28.924Z,22.13
2018-05-13T01:32:57.297Z,21.53
2018-05-13T01:35:25.621Z,22.80
2018-05-13T01:37:54.083Z,23.77
2018-05-13T01:40:22.425Z,23.70
2018-05-13T01:42:50.764Z,21.10
2018-05-13T01:45:19.140Z,23.23
2018-05-13T01:47:47.487Z,22.57
2018-05-13T01:50:15.852Z,22.57
2018-05-13T01:52:44.195Z,23.17
2018-05-13T01:55:13.334Z,23.10
2018-05-13T01:57:41.701Z,24.27
2018-05-13T02:00:10.050Z,25.30
2018-05-13T02:02:39.214Z,23.67
2018-05-13T02:05:07.564Z,23.73
2018-05-13T02:07:35.913Z,23.60
2018-05-13T02:10:04.281Z,22.33
2018-05-13T02:12:33.425Z,22.93
2018-05-13T02:15:01.749Z,21.10
2018-05-13T02:17:30.877Z,23.87
2018-05-13T02:19:59.278Z,23.60
2018-05-13T02:22:27.618Z,22.60
2018-05-13T02:24:55.949Z,24.10
2018-05-13T02:27:24.294Z,24.23
2018-05-13T02:29:52.662Z,24.37
2018-05-13T02:32:21.076Z,22.63
2018-05-13T02:34:49.427Z,23.10
2018-05-13T02:37:17.762Z,23.13
2018-05-13T02:39:46.943Z,22.00
2018-05-13T02:42:15.279Z,23.70
2018-05-13T02:44:45.079Z,25.30
2018-05-13T02:47:13.436Z,20.67
2018-05-13T02:49:41.782Z,24.33
2018-05-13T02:52:10.265Z,23.90
2018-05-13T02:54:38.611Z,23.87
2018-05-13T02:57:06.986Z,22.87
2018-05-13T02:59:35.459Z,23.23
2018-05-13T03:02:03.821Z,23.37
2018-05-13T03:04:32.156Z,21.77
2018-05-13T03:07:00.529Z,23.93
2018-05-13T03:09:28.891Z,21.63
2018-05-13T03:11:57.251Z,23.93
2018-05-13T03:14:25.600Z,23.00
2018-05-13T03:16:53.997Z,23.77
2018-05-13T03:19:22.346Z,21.73
2018-05-13T03:21:51.444Z,23.17
2018-05-13T03:24:19.867Z,23.13
2018-05-13T03:26:48.313Z,24.83
2018-05-13T03:29:16.651Z,24.27
2018-05-13T03:31:45.066Z,26.27
2018-05-13T03:34:13.389Z,24.63
2018-05-13T03:36:41.743Z,25.07
2018-05-13T03:39:10.128Z,25.33
2018-05-13T03:41:38.473Z,25.07
2018-05-13T03:44:06.808Z,24.57
2018-05-13T03:46:35.158Z,24.93
2018-05-13T03:49:03.974Z,25.33
2018-05-13T03:51:32.315Z,22.77
2018-05-13T03:54:00.644Z,24.83
2018-05-13T03:56:29.772Z,23.97
2018-05-13T03:58:58.138Z,23.07
2018-05-13T04:01:26.481Z,23.37
2018-05-13T04:03:54.833Z,23.93
2018-05-13T04:06:23.245Z,22.10
2018-05-13T04:09:03.548Z,22.70
2018-05-13T04:11:43.933Z,23.60
2018-05-13T04:14:24.976Z,22.77
2018-05-13T04:16:53.362Z,23.10
2018-05-13T04:19:21.836Z,23.40
2018-05-13T04:21:50.155Z,22.53
2018-05-13T04:24:18.480Z,21.40
2018-05-13T04:26:46.842Z,21.90
2018-05-13T04:29:15.943Z,22.57
2018-05-13T04:31:44.422Z,21.97
2018-05-13T04:34:13.540Z,22.93
2018-05-13T04:36:41.890Z,21.47
2018-05-13T04:39:10.993Z,21.53
2018-05-13T04:41:39.367Z,21.53
2018-05-13T04:44:08.477Z,22.63
2018-05-13T04:46:36.813Z,24.30
2018-05-13T04:49:05.196Z,22.37
2018-05-13T04:51:33.550Z,22.63
2018-05-13T04:54:01.896Z,23.23
2018-05-13T04:56:30.282Z,22.10
2018-05-13T04:58:58.687Z,22.70
2018-05-13T05:01:27.495Z,22.30
2018-05-13T05:03:55.863Z,22.23
2018-05-13T05:06:24.967Z,21.87
2018-05-13T05:08:53.460Z,22.67
2018-05-13T05:11:22.227Z,22.67
2018-05-13T05:13:50.569Z,23.57
2018-05-13T05:16:18.943Z,23.57
2018-05-13T05:18:49.099Z,22.60
2018-05-13T05:21:18.023Z,23.73
2018-05-13T05:23:47.248Z,24.70
2018-05-13T05:26:15.585Z,23.50
2018-05-13T05:28:44.711Z,23.07
2018-05-13T05:31:13.138Z,22.37
2018-05-13T05:33:42.313Z,22.93
2018-05-13T05:36:13.482Z,23.17
2018-05-13T05:38:41.992Z,22.73
2018-05-13T05:41:10.328Z,23.00
2018-05-13T05:43:38.723Z,21.10
2018-05-13T05:46:07.093Z,21.40
2018-05-13T05:48:35.468Z,22.53
2018-05-13T05:51:03.843Z,21.60
2018-05-13T05:53:32.192Z,21.63
2018-05-13T05:56:00.555Z,22.53
2018-05-13T05:58:28.921Z,20.63
2018-05-13T06:00:57.258Z,23.17
2018-05-13T06:03:25.721Z,21.47
2018-05-13T06:05:54.070Z,18.23
2018-05-13T06:08:22.422Z,21.30
2018-05-13T06:10:53.948Z,20.77
2018-05-13T06:13:22.301Z,21.23
2018-05-13T06:15:50.666Z,22.03
2018-05-13T06:18:19.020Z,21.83
2018-05-13T06:20:47.338Z,20.07
2018-05-13T06:23:15.714Z,22.43
2018-05-13T06:25:44.066Z,19.97
2018-05-13T06:28:14.079Z,22.57
2018-05-13T06:30:42.421Z,19.97
2018-05-13T06:33:11.567Z,21.73
2018-05-13T06:35:39.911Z,21.23
2018-05-13T06:38:08.392Z,21.00
2018-05-13T06:40:36.721Z,22.23
2018-05-13T06:43:05.058Z,21.87
2018-05-13T06:45:33.430Z,21.17
2018-05-13T06:48:02.124Z,21.00
2018-05-13T06:50:30.468Z,21.80
2018-05-13T06:52:59.584Z,20.07
2018-05-13T06:55:27.930Z,21.90
2018-05-13T06:57:56.350Z,21.30
2018-05-13T07:00:24.721Z,20.97
2018-05-13T07:02:53.132Z,20.10
2018-05-13T07:05:21.460Z,20.57
2018-05-13T07:07:50.657Z,20.87
2018-05-13T07:10:18.969Z,20.93
2018-05-13T07:12:47.364Z,21.17
2018-05-13T07:15:17.628Z,20.63
2018-05-13T07:17:46.983Z,19.37
2018-05-13T07:20:15.723Z,21.40
2018-05-13T07:22:44.818Z,20.57
2018-05-13T07:25:13.200Z,21.00
2018-05-13T07:27:41.529Z,21.70
2018-05-13T07:30:10.297Z,19.67
2018-05-13T07:32:38.654Z,20.73
2018-05-13T07:35:07.007Z,20.73
2018-05-13T07:37:36.156Z,21.27
2018-05-13T07:40:04.494Z,21.50
2018-05-13T07:42:32.843Z,21.37
2018-05-13T07:45:01.209Z,19.60
2018-05-13T07:47:29.979Z,19.60
2018-05-13T07:49:58.364Z,21.73
2018-05-13T07:52:26.681Z,22.00
2018-05-13T07:54:55.061Z,20.63
2018-05-13T07:57:23.416Z,21.63
2018-05-13T07:59:51.772Z,20.83
2018-05-13T08:02:20.118Z,20.00
2018-05-13T08:04:48.912Z,22.07
2018-05-13T08:07:17.256Z,22.77
2018-05-13T08:09:46.366Z,21.87
2018-05-13T08:12:14.834Z,21.27
2018-05-13T08:14:43.937Z,20.87
2018-05-13T08:17:12.749Z,21.93
2018-05-13T08:19:41.103Z,20.47
2018-05-13T08:22:09.441Z,22.17
2018-05-13T08:24:37.853Z,20.47
2018-05-13T08:27:06.196Z,21.50
2018-05-13T08:29:34.555Z,21.57
2018-05-13T08:32:02.909Z,20.30
2018-05-13T08:34:31.272Z,21.27
2018-05-13T08:36:59.626Z,20.23
2018-05-13T08:39:28.733Z,20.63
2018-05-13T08:41:57.147Z,20.90
2018-05-13T08:44:26.198Z,21.93
2018-05-13T08:46:55.327Z,21.97
2018-05-13T08:49:23.657Z,19.70
2018-05-13T08:51:52.023Z,19.87
2018-05-13T08:54:20.368Z,19.50
2018-05-13T08:56:48.711Z,21.00
2018-05-13T08:59:17.836Z,19.73
2018-05-13T09:01:46.192Z,20.27
2018-05-13T09:04:14.561Z,21.13
2018-05-13T09:06:43.674Z,20.27
2018-05-13T09:09:14.009Z,19.97
2018-05-13T09:11:42.365Z,19.80
2018-05-13T09:14:10.763Z,18.87
2018-05-13T09:16:39.083Z,16.97
2018-05-13T09:19:07.428Z,18.30
2018-05-13T09:21:35.893Z,18.23
2018-05-13T09:24:04.224Z,18.50
2018-05-13T09:26:32.601Z,17.90
2018-05-13T09:29:01.006Z,19.03
2018-05-13T09:31:29.363Z,18.87
2018-05-13T09:33:57.700Z,18.30
2018-05-13T09:36:26.441Z,18.47
2018-05-13T09:38:55.538Z,20.10
2018-05-13T09:41:24.674Z,19.87
2018-05-13T09:43:53.038Z,17.23
2018-05-13T09:46:21.803Z,19.17
2018-05-13T09:48:50.144Z,18.33
2018-05-13T09:51:18.487Z,19.73
2018-05-13T09:53:46.876Z,16.10
2018-05-13T09:56:15.639Z,16.90
2018-05-13T09:58:43.965Z,15.93
2018-05-13T10:01:12.320Z,16.77
2018-05-13T10:03:40.676Z,16.77
2018-05-13T10:06:09.045Z,15.97
2018-05-13T10:08:37.529Z,15.13
2018-05-13T10:11:05.878Z,16.43
2018-05-13T10:13:34.979Z,15.30
2018-05-13T10:16:03.395Z,13.73
2018-05-13T10:18:32.122Z,13.73
2018-05-13T10:21:00.481Z,13.60
2018-05-13T10:23:28.853Z,13.20
2018-05-13T10:25:57.282Z,13.67
2018-05-13T10:28:25.755Z,14.03
2018-05-13T10:30:54.864Z,12.73
2018-05-13T10:33:23.225Z,13.10
2018-05-13T10:35:52.470Z,13.43
2018-05-13T10:38:20.816Z,12.97
2018-05-13T10:40:49.149Z,13.40
2018-05-13T10:43:17.524Z,13.63
2018-05-13T10:45:45.868Z,12.73
2018-05-13T10:48:14.292Z,13.03
2018-05-13T10:50:42.635Z,12.87
2018-05-13T10:53:10.996Z,12.10
2018-05-13T10:55:39.620Z,12.17
2018-05-13T10:58:08.107Z,12.43
2018-05-13T11:00:36.434Z,15.60
2018-05-13T11:03:04.769Z,14.93
2018-05-13T11:05:33.121Z,13.33
2018-05-13T11:08:01.464Z,14.63
2018-05-13T11:10:30.394Z,13.10
2018-05-13T11:12:58.807Z,13.87
2018-05-13T11:15:29.055Z,14.30
2018-05-13T11:17:58.535Z,12.10
2018-05-13T11:20:27.684Z,13.57
2018-05-13T11:22:56.750Z,11.37
2018-05-13T11:25:28.255Z,11.23
2018-05-13T11:27:57.909Z,11.00
2018-05-13T11:30:26.253Z,10.07
2018-05-13T11:32:55.364Z,10.40
2018-05-13T11:35:23.728Z,9.93
2018-05-13T11:37:52.847Z,9.70
2018-05-13T11:40:21.219Z,9.83
2018-05-13T11:42:49.562Z,9.70
2018-05-13T11:45:18.760Z,9.30
2018-05-13T11:47:48.568Z,9.20
2018-05-13T11:50:17.023Z,9.53
2018-05-13T11:52:45.390Z,9.23
2018-05-13T11:55:13.752Z,9.23
2018-05-13T11:57:42.112Z,10.77
2018-05-13T12:00:11.221Z,9.55
2018-05-13T12:02:39.588Z,10.50
2018-05-13T12:05:07.938Z,10.00
2018-05-13T12:07:36.263Z,9.88
2018-05-13T12:10:04.619Z,10.07
2018-05-13T12:12:32.971Z,10.23
2018-05-13T12:15:01.378Z,9.37
2018-05-13T12:17:30.505Z,10.20
2018-05-13T12:20:00.719Z,9.83
2018-05-13T12:22:30.487Z,9.47
2018-05-13T12:25:01.409Z,10.00
2018-05-13T12:27:30.964Z,10.17
2018-05-13T12:29:59.992Z,9.60
2018-05-13T12:32:29.393Z,9.70
2018-05-13T12:34:57.705Z,9.60
2018-05-13T12:37:26.814Z,9.97
2018-05-13T12:39:57.394Z,9.30
2018-05-13T12:42:27.782Z,9.53
2018-05-13T12:44:56.279Z,9.05
2018-05-13T12:47:24.618Z,9.43
2018-05-13T12:49:53.782Z,8.98
2018-05-13T12:52:22.142Z,9.65
2018-05-13T12:54:50.622Z,9.52
2018-05-13T12:57:18.941Z,8.85
2018-05-13T12:59:48.045Z,8.60
2018-05-13T13:02:17.210Z,9.10
2018-05-13T13:04:45.552Z,8.52
2018-05-13T13:07:13.889Z,7.37
2018-05-13T13:09:42.997Z,8.65
2018-05-13T13:12:11.352Z,8.35
2018-05-13T13:14:40.457Z,8.27
2018-05-13T13:17:09.577Z,7.97
2018-05-13T13:19:37.913Z,7.90
2018-05-13T13:22:06.291Z,8.70
2018-05-13T13:24:35.571Z,7.72
2018-05-13T13:27:04.047Z,7.85
2018-05-13T13:29:32.380Z,7.95
2018-05-13T13:32:00.760Z,7.87
2018-05-13T13:34:29.074Z,8.05
2018-05-13T13:36:57.472Z,7.93
2018-05-13T13:39:25.810Z,6.90
2018-05-13T13:41:54.137Z,7.95
2018-05-13T13:44:22.492Z,7.75
2018-05-13T13:46:50.815Z,7.65
2018-05-13T13:49:19.197Z,7.10
2018-05-13T13:51:47.922Z,6.87
2018-05-13T13:54:16.272Z,8.20
2018-05-13T13:56:44.616Z,8.38
2018-05-13T13:59:13.755Z,6.77
2018-05-13T14:01:42.122Z,7.05
2018-05-13T14:04:10.472Z,6.82
2018-05-13T14:06:39.572Z,7.47
2018-05-13T14:09:08.811Z,7.00
2018-05-13T14:11:37.123Z,6.43
2018-05-13T14:14:05.482Z,6.53
2018-05-13T14:16:33.849Z,6.90
2018-05-13T14:19:02.176Z,6.80
2018-05-13T14:21:31.310Z,6.87
2018-05-13T14:23:59.653Z,7.10
2018-05-13T14:26:28.898Z,6.47
2018-05-13T14:28:57.223Z,7.20
2018-05-13T14:31:26.342Z,6.53
2018-05-13T14:33:54.893Z,6.80
2018-05-13T14:36:24.022Z,7.33
2018-05-13T14:38:52.385Z,7.77
2018-05-13T14:41:20.734Z,7.13
2018-05-13T14:43:49.111Z,6.87
2018-05-13T14:46:17.481Z,6.67
2018-05-13T14:48:45.823Z,6.80
2018-05-13T14:51:14.163Z,6.60
2018-05-13T14:53:43.239Z,6.10
2018-05-13T14:56:11.573Z,5.77
2018-05-13T14:58:39.914Z,6.40
2018-05-13T15:01:09.025Z,6.50
2018-05-13T15:03:37.363Z,5.93
2018-05-13T15:06:05.750Z,5.73
2018-05-13T15:08:34.148Z,5.40
2018-05-13T15:11:02.475Z,5.33
2018-05-13T15:13:30.818Z,4.73
2018-05-13T15:15:59.170Z,5.10
2018-05-13T15:18:28.289Z,4.70
2018-05-13T15:20:56.694Z,4.70
2018-05-13T15:23:25.026Z,5.03
2018-05-13T15:25:54.117Z,4.57
2018-05-13T15:28:23.255Z,4.63
2018-05-13T15:30:51.591Z,4.32
2018-05-13T15:33:20.821Z,4.20
2018-05-13T15:35:49.143Z,4.00
2018-05-13T15:38:18.267Z,4.43
2018-05-13T15:40:46.633Z,4.57
2018-05-13T15:43:15.773Z,4.33
2018-05-13T15:45:44.105Z,3.97
2018-05-13T15:48:13.239Z,4.13
2018-05-13T15:50:42.035Z,4.80
2018-05-13T15:53:10.367Z,4.30
2018-05-13T15:55:39.457Z,4.20
2018-05-13T15:58:08.627Z,4.30
2018-05-13T16:00:36.954Z,4.53
2018-05-13T16:03:05.286Z,4.57
2018-05-13T16:05:33.646Z,4.80
2018-05-13T16:08:01.985Z,4.53
2018-05-13T16:10:30.326Z,4.57
2018-05-13T16:12:58.713Z,4.80
2018-05-13T16:15:27.805Z,4.30
2018-05-13T16:17:56.923Z,5.00
2018-05-13T16:20:25.263Z,5.87
2018-05-13T16:22:53.622Z,6.47
2018-05-13T16:25:21.948Z,5.90
2018-05-13T16:27:51.176Z,6.33
2018-05-13T16:30:19.608Z,5.97
2018-05-13T16:32:47.885Z,5.70
2018-05-13T16:35:16.235Z,6.67
2018-05-13T16:37:44.590Z,6.40
2018-05-13T16:40:12.912Z,6.83
2018-05-13T16:42:41.391Z,7.50
2018-05-13T16:45:09.738Z,9.00
2018-05-13T16:47:38.076Z,9.47
2018-05-13T16:50:06.450Z,10.13
2018-05-13T16:52:34.825Z,10.37
2018-05-13T16:55:03.198Z,10.23
2018-05-13T16:57:32.340Z,11.00
2018-05-13T17:00:00.671Z,11.07
2018-05-13T17:02:29.871Z,11.47
2018-05-13T17:04:58.187Z,10.67
2018-05-13T17:07:26.528Z,11.50
2018-05-13T17:09:55.312Z,10.17
2018-05-13T17:12:23.686Z,9.40
2018-05-13T17:14:52.805Z,9.17
2018-05-13T17:17:21.219Z,8.30
2018-05-13T17:19:49.569Z,7.53
2018-05-13T17:22:17.931Z,7.27
2018-05-13T17:24:46.250Z,5.20
2018-05-13T17:27:14.601Z,5.27
2018-05-13T17:29:42.999Z,5.73
2018-05-13T17:32:11.336Z,5.37
2018-05-13T17:34:39.724Z,5.50
2018-05-13T17:37:08.054Z,5.47
2018-05-13T17:39:36.404Z,5.00
2018-05-13T17:42:04.765Z,5.23
2018-05-13T17:44:33.083Z,5.53
2018-05-13T17:47:01.571Z,4.67
2018-05-13T17:49:29.890Z,4.57
2018-05-13T17:51:58.220Z,5.13
2018-05-13T17:54:26.594Z,5.30
2018-05-13T17:56:54.952Z,5.47
2018-05-13T17:59:23.314Z,5.10
2018-05-13T18:01:51.665Z,5.83
2018-05-13T18:04:20.002Z,6.40
2018-05-13T18:06:48.395Z,5.97
2018-05-13T18:09:17.524Z,8.20
2018-05-13T18:11:45.862Z,7.93
2018-05-13T18:14:14.219Z,9.73
2018-05-13T18:16:42.598Z,10.60
2018-05-13T18:19:10.988Z,12.77
2018-05-13T18:21:39.333Z,12.87
2018-05-13T18:24:07.709Z,13.50
2018-05-13T18:26:36.057Z,14.57
2018-05-13T18:29:04.570Z,14.50
2018-05-13T18:31:32.885Z,14.30
2018-05-13T18:34:01.238Z,14.53
2018-05-13T18:36:29.592Z,14.40
2018-05-13T18:38:58.026Z,14.57
2018-05-13T18:41:27.093Z,14.30
2018-05-13T18:43:55.439Z,14.10
2018-05-13T18:46:23.843Z,13.67
2018-05-13T18:48:52.269Z,12.83
2018-05-13T18:51:21.360Z,12.87
2018-05-13T18:53:50.499Z,12.47
2018-05-13T18:56:18.855Z,13.60
2018-05-13T18:58:47.299Z,14.00
2018-05-13T19:01:15.630Z,14.60
2018-05-13T19:03:43.983Z,14.53
2018-05-13T19:06:12.327Z,14.07
2018-05-13T19:08:40.711Z,12.63
2018-05-13T19:11:09.820Z,11.30
2018-05-13T19:13:39.075Z,12.40
2018-05-13T19:16:07.433Z,11.50
2018-05-13T19:18:36.301Z,11.63
2018-05-13T19:21:04.667Z,11.90
2018-05-13T19:23:33.778Z,11.77
2018-05-13T19:26:02.131Z,11.13
2018-05-13T19:28:31.252Z,10.83
2018-05-13T19:30:59.682Z,10.47
2018-05-13T19:33:28.001Z,11.03
2018-05-13T19:35:56.346Z,10.87
2018-05-13T19:38:25.461Z,11.80
2018-05-13T19:40:54.690Z,11.97
2018-05-13T19:43:23.125Z,12.03
2018-05-13T19:45:51.399Z,11.70
2018-05-13T19:48:20.648Z,12.37
2018-05-13T19:50:48.973Z,13.57
2018-05-13T19:53:18.083Z,14.47
2018-05-13T19:55:47.234Z,15.70
2018-05-13T19:58:15.574Z,15.80
2018-05-13T20:00:43.935Z,17.37
2018-05-13T20:03:12.340Z,18.03
2018-05-13T20:05:41.440Z,15.97
2018-05-13T20:08:09.810Z,18.27
2018-05-13T20:10:38.166Z,17.33
2018-05-13T20:13:06.967Z,17.43
2018-05-13T20:15:35.322Z,19.70
2018-05-13T20:18:03.685Z,18.40
2018-05-13T20:20:32.038Z,19.70
2018-05-13T20:23:12.362Z,20.90
2018-05-13T20:25:40.676Z,20.50
2018-05-13T20:28:09.025Z,20.77
2018-05-13T20:30:37.375Z,20.23
2018-05-13T20:33:05.722Z,19.97
2018-05-13T20:35:34.093Z,20.43
2018-05-13T20:38:02.440Z,20.30
2018-05-13T20:40:30.785Z,19.50
2018-05-13T20:43:00.286Z,20.30
2018-05-13T20:45:29.444Z,22.93
2018-05-13T20:47:57.796Z,22.53
2018-05-13T20:50:26.155Z,22.17
2018-05-13T20:52:55.389Z,23.57
2018-05-13T20:55:23.728Z,23.23
2018-05-13T20:57:52.146Z,22.93
2018-05-13T21:00:20.525Z,24.00
2018-05-13T21:02:48.860Z,23.80
2018-05-13T21:05:17.235Z,24.47
2018-05-13T21:07:45.615Z,24.53
2018-05-13T21:10:14.007Z,24.00
2018-05-13T21:12:42.486Z,24.73
2018-05-13T21:15:10.861Z,24.97
2018-05-13T21:17:39.233Z,23.67
2018-05-13T21:20:07.731Z,24.80
2018-05-13T21:22:36.084Z,25.67
2018-05-13T21:25:04.436Z,23.33
2018-05-13T21:27:33.599Z,24.43
2018-05-13T21:30:01.954Z,24.13
2018-05-13T21:32:30.304Z,24.63
2018-05-13T21:34:58.660Z,23.83
2018-05-13T21:37:26.985Z,27.70
2018-05-13T21:39:55.341Z,27.33
2018-05-13T21:42:23.662Z,27.80
2018-05-13T21:44:52.040Z,24.10
2018-05-13T21:47:20.417Z,27.93
2018-05-13T21:49:48.771Z,24.70
2018-05-13T21:52:17.174Z,26.40
2018-05-13T21:54:45.521Z,25.90
2018-05-13T21:57:14.628Z,27.07
2018-05-13T21:59:43.005Z,25.70
2018-05-13T22:02:11.790Z,25.23
2018-05-13T22:04:55.022Z,22.33
2018-05-13T22:07:23.426Z,24.17
2018-05-13T22:09:51.766Z,24.63
2018-05-13T22:12:20.124Z,24.00
2018-05-13T22:14:48.462Z,24.80
2018-05-13T22:17:17.190Z,23.40
2018-05-13T22:19:45.532Z,26.03
2018-05-13T22:22:13.864Z,26.13
2018-05-13T22:24:42.225Z,25.97
2018-05-13T22:27:10.582Z,25.60
2018-05-13T22:29:39.826Z,26.40
2018-05-13T22:32:08.199Z,23.30
2018-05-13T22:34:36.558Z,26.00
2018-05-13T22:37:04.922Z,24.87
2018-05-13T22:39:33.340Z,24.93
2018-05-13T22:42:01.691Z,27.40
2018-05-13T22:44:30.046Z,25.33
2018-05-13T22:46:59.173Z,24.17
2018-05-13T22:49:27.513Z,27.17
2018-05-13T22:51:56.247Z,26.83
2018-05-13T22:54:25.366Z,27.43
2018-05-13T22:56:53.700Z,25.50
2018-05-13T22:59:22.056Z,26.23
2018-05-13T23:01:51.144Z,25.23
2018-05-13T23:04:20.398Z,26.20
2018-05-13T23:06:48.722Z,25.50
2018-05-13T23:09:17.923Z,27.37
2018-05-13T23:11:46.242Z,27.00
2018-05-13T23:14:14.600Z,25.83
2018-05-13T23:16:43.087Z,25.77
2018-05-13T23:19:11.435Z,25.83
2018-05-13T23:21:40.542Z,27.13
2018-05-13T23:24:08.900Z,28.00
2018-05-13T23:26:38.006Z,26.27
2018-05-13T23:29:06.371Z,28.17
2018-05-13T23:31:35.474Z,30.40
2018-05-13T23:34:04.600Z,26.33
2018-05-13T23:36:33.008Z,27.00
2018-05-13T23:39:01.334Z,28.67
2018-05-13T23:41:29.697Z,27.43
2018-05-13T23:43:58.834Z,25.70
2018-05-13T23:46:27.193Z,28.83
2018-05-13T23:48:55.558Z,29.00
2018-05-13T23:51:25.043Z,25.27
2018-05-13T23:53:54.161Z,26.10
2018-05-13T23:56:23.295Z,28.47
2018-05-13T23:58:51.662Z,27.23
